Overview Statistics Trail Chart Weather Telemetry Raw packets
 

This is the latest recevied weather packets stored in our database for station/object DL2AKT-20. If no packets are shown the sender has not sent any weather packets the latest 10 day(s).

<< 38 39 40 41 42 43 44 >>
Time Temp. Humidity Pressure Rain* Wind** Luminosity Snow
1777296868 21.11° C 26% 1024.8 hPa - - - -
1777295971 21.67° C 25% 1024.8 hPa - - - -
1777295067 21.11° C 26% 1024.9 hPa - - - -
1777294171 21.67° C 26% 1024.9 hPa - - - -
1777293271 20.56° C 30% 1025.1 hPa - - - -
1777292371 20° C 30% 1025.2 hPa - - - -
1777291473 20.56° C 27% 1025.3 hPa - - - -
1777290570 19.44° C 30% 1025.2 hPa - - - -
1777289670 19.44° C 34% 1025.3 hPa - - - -
1777288769 18.89° C 34% 1025.5 hPa - - - -
1777287869 18.89° C 35% 1025.7 hPa - - - -
1777286969 18.89° C 29% 1025.7 hPa - - - -
1777286069 17.78° C 31% 1025.7 hPa - - - -
1777285168 17.78° C 30% 1025.9 hPa - - - -
1777284268 17.22° C 33% 1026 hPa - - - -
1777283368 17.78° C 30% 1026.1 hPa - - - -
1777282468 16.67° C 30% 1026.2 hPa - - - -
1777281568 16.67° C 32% 1026.4 hPa - - - -
1777280668 16.67° C 32% 1026.6 hPa - - - -
1777279767 15.56° C 31% 1026.7 hPa - - - -
1777278867 16.11° C 30% 1026.8 hPa - - - -
1777277966 15.56° C 31% 1026.7 hPa - - - -
1777277066 15.56° C 31% 1026.7 hPa - - - -
1777276166 15° C 33% 1026.7 hPa - - - -
1777275266 13.89° C 35% 1026.8 hPa - - - -

* Rain since midnight (hover to see other rain measurements)
** Current wind speed in m/s (hover to see current wind gust speed)